Hauptseite
METAR-TAF:

METAR-TAF

Flughäfen :

Natashquan, Québec, Kanada

Breite: 50-11N, Länge: 061-49W, Höhe: 7 m

Beobachtung

Neuester Wetterbericht von vor 57 Minuten, um 01:00 UTC
Wind 14 kt aus West/Nordwest
Temperatur -2°C
Luftfeuchtigkeit 74%
Luftdruck 1010 hPa
Sichtweite: 14.5 km
Leicht bewölkt in der Höhe von 5500 ft

METAR: CYNA 160100Z AUTO 29014KT 9SM FEW055 M02/M06 A2983 RMK SLP104

Zeit: 20:57 (01:57 UTC)

Prognose

Neuester Wetterbericht von vor 19 Minuten, um 01:38 UTC
Gültige Prognose vom 16 um 02 UTC bis 16 um 14 UTC
Wind 12 kt aus West/Nordwest, Böen bis zu 22 kt
Sichtweite: 10 km
Leicht bewölkt in der Höhe von 6000 ft
Übergehend zu
vom 16 um 10 UTC bis 16 um 12 UTC
Wind 12 kt aus West/Nordwest

TAF: CYNA 160138Z 1602/1614 29012G22KT P6SM FEW060 BECMG 1610/1612 29012KT RMK FCST BASED ON AUTO OBS. NXT FCST BY 160800Z

Wetterbeobachtungen und Prognosen von mehr als 4000 Flughäfen (METAR und TAF Bericht).

Die verfügbaren Stationen werden durch gelbe und rote Markierungen auf der Karte dargestellt.

Führen Sie die Maus auf sie, um den Namen der Station zu sehen.

Darauf klicken, um die Beobachtung von Wetterbeobachtungen und Prognosen zu sehen.

Um die Karte zu ändern : klicken Sie auf den grünen Tasten mit einem schwarzen Kreuz Zum Vergrößern, auf den grünen Button mit einem Gedankenstrich zu verkleinern, oder auf die grünen Pfeile für benachbarte Karten.


METAR-TAF: